Time,TemperatureF,DewpointF,PressureIn,WindDirection,WindDirectionDegrees,WindSpeedMPH,WindSpeedGustMPH,Humidity,HourlyPrecipIn,Conditions,Clouds,dailyrainin,SoftwareType,DateUTC
2013-04-19 00:03:00,59.0,57.0,29.58,South,174,4.0,6.0,92,0.00,,,0.25,,2013-04-19 04:03:00,
2013-04-19 00:13:00,60.0,58.0,29.58,SSE,157,2.0,6.0,92,0.00,,,0.25,,2013-04-19 04:13:00,
2013-04-19 00:23:00,60.0,58.0,29.58,SSE,157,2.0,6.0,92,0.00,,,0.25,,2013-04-19 04:23:00,
2013-04-19 00:33:00,60.0,58.0,29.57,SSE,157,3.0,7.0,92,0.00,,,0.25,,2013-04-19 04:33:00,
2013-04-19 00:43:00,57.0,55.0,29.59,WNW,292,7.0,9.0,92,0.00,,,0.25,,2013-04-19 04:43:00,
2013-04-19 00:52:00,57.0,55.0,29.59,WNW,292,7.0,9.0,92,0.00,,,0.25,,2013-04-19 04:52:00,
2013-04-19 01:03:00,55.0,53.0,29.60,NW,312,6.0,7.0,92,0.00,,,0.25,,2013-04-19 05:03:00,
2013-04-19 01:12:00,55.0,53.0,29.60,NW,312,6.0,7.0,92,0.00,,,0.25,,2013-04-19 05:12:00,
2013-04-19 01:22:00,53.0,51.0,29.58,WNW,292,0.0,3.0,92,0.00,,,0.25,,2013-04-19 05:22:00,
2013-04-19 01:32:00,52.0,50.0,29.57,WNW,292,6.0,7.0,92,0.00,,,0.25,,2013-04-19 05:32:00,
2013-04-19 01:42:00,52.0,50.0,29.57,WNW,292,6.0,7.0,92,0.00,,,0.25,,2013-04-19 05:42:00,
2013-04-19 01:52:00,52.0,50.0,29.58,WNW,292,3.0,7.0,92,0.00,,,0.25,,2013-04-19 05:52:00,
2013-04-19 02:02:00,50.0,47.0,29.57,NNW,337,2.0,3.0,91,0.12,,,0.37,,2013-04-19 06:02:00,
2013-04-19 02:12:00,49.0,47.0,29.58,WNW,292,0.0,5.0,92,0.14,,,0.39,,2013-04-19 06:12:00,
2013-04-19 02:22:00,49.0,47.0,29.58,WNW,292,0.0,5.0,92,0.14,,,0.39,,2013-04-19 06:22:00,
2013-04-19 02:32:00,47.0,45.0,29.58,WNW,292,5.0,7.0,91,0.39,,,0.64,,2013-04-19 06:32:00,
2013-04-19 02:42:00,47.0,45.0,29.58,WNW,292,5.0,7.0,91,0.39,,,0.64,,2013-04-19 06:42:00,
2013-04-19 02:52:00,47.0,45.0,29.57,WNW,292,7.0,7.0,91,0.41,,,0.66,,2013-04-19 06:52:00,
2013-04-19 03:02:00,45.0,43.0,29.56,West,270,3.0,7.0,91,0.37,,,0.74,,2013-04-19 07:02:00,
2013-04-19 03:12:00,44.0,42.0,29.57,WNW,292,4.0,4.0,91,0.37,,,0.76,,2013-04-19 07:12:00,
2013-04-19 03:21:00,44.0,42.0,29.57,WNW,292,4.0,4.0,91,0.37,,,0.76,,2013-04-19 07:21:00,
2013-04-19 03:32:00,44.0,42.0,29.56,NNW,337,3.0,4.0,91,0.20,,,0.84,,2013-04-19 07:32:00,
2013-04-19 03:42:00,43.0,41.0,29.57,NW,315,8.0,9.0,91,0.20,,,0.86,,2013-04-19 07:42:00,
2013-04-19 03:52:00,43.0,41.0,29.57,NW,315,8.0,9.0,91,0.20,,,0.86,,2013-04-19 07:52:00,
2013-04-19 04:02:00,43.0,41.0,29.56,WNW,301,4.0,5.0,91,0.12,,,0.86,,2013-04-19 08:02:00,
2013-04-19 04:12:00,43.0,41.0,29.56,West,270,2.0,5.0,91,0.10,,,0.86,,2013-04-19 08:12:00,
2013-04-19 04:22:00,43.0,41.0,29.56,West,270,2.0,5.0,91,0.10,,,0.86,,2013-04-19 08:22:00,
2013-04-19 04:33:00,41.0,39.0,29.57,NW,313,4.0,7.0,91,0.04,,,0.88,,2013-04-19 08:33:00,
2013-04-19 04:42:00,41.0,39.0,29.58,WNW,292,7.0,7.0,91,0.04,,,0.90,,2013-04-19 08:42:00,
2013-04-19 04:52:00,41.0,39.0,29.58,WNW,292,7.0,7.0,91,0.04,,,0.90,,2013-04-19 08:52:00,
2013-04-19 05:01:00,41.0,39.0,29.58,NW,315,6.0,8.0,91,0.04,,,0.90,,2013-04-19 09:01:00,
2013-04-19 05:12:00,40.0,38.0,29.58,WNW,293,6.0,6.0,91,0.04,,,0.90,,2013-04-19 09:12:00,
2013-04-19 05:21:00,40.0,38.0,29.58,WNW,293,6.0,6.0,91,0.04,,,0.90,,2013-04-19 09:21:00,
2013-04-19 05:33:00,39.0,37.0,29.58,NW,307,10.0,11.0,91,0.02,,,0.90,,2013-04-19 09:33:00,
2013-04-19 05:43:00,39.0,37.0,29.58,NW,307,10.0,11.0,91,0.02,,,0.90,,2013-04-19 09:43:00,
2013-04-19 05:52:00,39.0,37.0,29.58,WNW,292,5.0,8.0,91,0.00,,,0.90,,2013-04-19 09:52:00,
2013-04-19 06:02:00,38.0,36.0,29.58,WNW,299,8.0,10.0,91,0.00,,,0.90,,2013-04-19 10:02:00,
2013-04-19 06:13:00,38.0,36.0,29.59,WNW,292,8.0,8.0,91,0.00,,,0.90,,2013-04-19 10:13:00,
2013-04-19 06:23:00,38.0,36.0,29.59,WNW,292,8.0,8.0,91,0.00,,,0.90,,2013-04-19 10:23:00,
2013-04-19 06:33:00,38.0,36.0,29.59,WNW,292,8.0,8.0,91,0.00,,,0.90,,2013-04-19 10:33:00,
2013-04-19 06:42:00,38.0,36.0,29.60,West,270,4.0,10.0,91,0.00,,,0.90,,2013-04-19 10:42:00,
2013-04-19 06:52:00,38.0,36.0,29.60,West,270,4.0,10.0,91,0.00,,,0.90,,2013-04-19 10:52:00,
2013-04-19 07:03:00,37.0,35.0,29.61,WNW,292,1.0,5.0,91,0.00,,,0.90,,2013-04-19 11:03:00,
2013-04-19 07:11:00,37.0,35.0,29.61,North,-999,-999.0,-999.0,91,0.00,,,0.90,,2013-04-19 11:11:00,
2013-04-19 07:22:00,37.0,35.0,29.61,North,-999,-999.0,-999.0,91,0.00,,,0.90,,2013-04-19 11:22:00,
2013-04-19 07:32:00,36.0,33.0,29.62,SW,225,4.0,4.0,90,0.00,,,0.90,,2013-04-19 11:32:00,
2013-04-19 07:42:00,36.0,33.0,29.62,SW,225,4.0,4.0,90,0.00,,,0.90,,2013-04-19 11:42:00,
2013-04-19 07:52:00,36.0,33.0,29.63,NW,315,6.0,10.0,89,0.00,,,0.90,,2013-04-19 11:52:00,
2013-04-19 08:03:00,36.0,33.0,29.64,NW,315,6.0,6.0,89,0.00,,,0.90,,2013-04-19 12:03:00,
2013-04-19 08:12:00,36.0,33.0,29.64,North,-999,-999.0,-999.0,89,0.00,,,0.90,,2013-04-19 12:12:00,
2013-04-19 08:22:00,36.0,33.0,29.64,North,-999,-999.0,-999.0,89,0.00,,,0.90,,2013-04-19 12:22:00,
2013-04-19 08:32:00,36.0,33.0,29.64,North,-999,-999.0,-999.0,89,0.00,,,0.90,,2013-04-19 12:32:00,
2013-04-19 08:42:00,36.0,33.0,29.64,North,-999,-999.0,-999.0,89,0.00,,,0.90,,2013-04-19 12:42:00,
2013-04-19 08:52:00,36.0,33.0,29.65,NW,315,5.0,9.0,88,0.00,,,0.90,,2013-04-19 12:52:00,
2013-04-19 09:02:00,36.0,33.0,29.65,North,-999,-999.0,-999.0,88,0.00,,,0.90,,2013-04-19 13:02:00,
2013-04-19 09:11:00,36.0,33.0,29.65,WSW,247,5.0,5.0,87,0.00,,,0.90,,2013-04-19 13:11:00,
2013-04-19 09:21:00,36.0,33.0,29.65,WSW,247,5.0,5.0,87,0.00,,,0.90,,2013-04-19 13:21:00,
2013-04-19 09:32:00,36.0,32.0,29.65,WNW,282,7.0,7.0,86,0.00,,,0.90,,2013-04-19 13:32:00,
2013-04-19 09:42:00,36.0,32.0,29.66,WNW,292,9.0,9.0,86,0.00,,,0.90,,2013-04-19 13:42:00,
2013-04-19 09:52:00,36.0,32.0,29.66,WNW,292,9.0,9.0,86,0.00,,,0.90,,2013-04-19 13:52:00,
2013-04-19 10:02:00,36.0,32.0,29.67,West,275,2.0,9.0,86,0.00,,,0.90,,2013-04-19 14:02:00,
2013-04-19 10:11:00,36.0,32.0,29.67,WSW,241,2.0,7.0,85,0.00,,,0.90,,2013-04-19 14:11:00,
2013-04-19 10:22:00,36.0,32.0,29.67,WSW,241,2.0,7.0,85,0.00,,,0.90,,2013-04-19 14:22:00,
2013-04-19 10:32:00,36.0,32.0,29.68,SW,225,2.0,2.0,85,0.00,,,0.90,,2013-04-19 14:32:00,
2013-04-19 10:42:00,36.0,32.0,29.68,SW,225,2.0,2.0,85,0.00,,,0.90,,2013-04-19 14:42:00,
2013-04-19 10:52:00,36.0,32.0,29.69,West,270,4.0,4.0,84,0.00,,,0.90,,2013-04-19 14:52:00,
2013-04-19 11:02:00,36.0,32.0,29.69,West,270,4.0,4.0,84,0.00,,,0.90,,2013-04-19 15:02:00,
2013-04-19 11:12:00,36.0,32.0,29.70,WSW,244,6.0,6.0,84,0.00,,,0.90,,2013-04-19 15:12:00,
2013-04-19 11:22:00,36.0,32.0,29.70,WSW,244,6.0,6.0,84,0.00,,,0.90,,2013-04-19 15:22:00,
2013-04-19 11:33:00,36.0,31.0,29.70,WSW,254,10.0,11.0,83,0.00,,,0.90,,2013-04-19 15:33:00,
2013-04-19 11:43:00,36.0,31.0,29.70,WSW,254,10.0,11.0,83,0.00,,,0.90,,2013-04-19 15:43:00,
2013-04-19 11:52:00,35.0,30.0,29.71,NW,315,5.0,5.0,83,0.00,,,0.90,,2013-04-19 15:52:00,
2013-04-19 12:03:00,35.0,30.0,29.71,NW,315,5.0,5.0,83,0.00,,,0.90,,2013-04-19 16:03:00,
2013-04-19 12:13:00,33.0,28.0,29.71,West,270,6.0,6.0,81,0.00,,,0.90,,2013-04-19 16:13:00,
2013-04-19 12:23:00,33.0,28.0,29.71,West,270,6.0,6.0,81,0.00,,,0.90,,2013-04-19 16:23:00,
2013-04-19 12:32:00,33.0,28.0,29.71,WSW,248,8.0,10.0,81,0.00,,,0.90,,2013-04-19 16:32:00,
2013-04-19 12:42:00,33.0,28.0,29.71,WNW,292,6.0,7.0,80,0.00,,,0.90,,2013-04-19 16:42:00,
2013-04-19 12:53:00,33.0,28.0,29.71,WNW,292,6.0,7.0,80,0.00,,,0.90,,2013-04-19 16:53:00,
2013-04-19 13:02:00,32.0,27.0,29.71,WNW,292,6.0,6.0,80,0.00,,,0.90,,2013-04-19 17:02:00,
2013-04-19 13:12:00,32.0,27.0,29.71,WNW,292,6.0,6.0,80,0.00,,,0.90,,2013-04-19 17:12:00,
2013-04-19 13:21:00,33.0,28.0,29.71,WNW,292,10.0,10.0,80,0.00,,,0.90,,2013-04-19 17:21:00,
2013-04-19 13:33:00,33.0,27.0,29.71,West,270,8.0,10.0,78,0.00,,,0.90,,2013-04-19 17:33:00,
2013-04-19 13:42:00,33.0,27.0,29.71,West,270,8.0,10.0,78,0.00,,,0.90,,2013-04-19 17:42:00,
2013-04-19 13:52:00,32.0,26.0,29.72,West,270,6.0,8.0,78,0.00,,,0.90,,2013-04-19 17:52:00,
2013-04-19 14:02:00,32.0,26.0,29.72,West,270,4.0,4.0,78,0.00,,,0.90,,2013-04-19 18:02:00,
2013-04-19 14:13:00,32.0,26.0,29.72,West,270,4.0,4.0,78,0.00,,,0.90,,2013-04-19 18:13:00,
2013-04-19 14:23:00,31.0,25.0,29.73,West,270,7.0,7.0,77,0.00,,,0.90,,2013-04-19 18:23:00,
2013-04-19 14:33:00,31.0,25.0,29.73,WSW,251,7.0,7.0,77,0.00,,,0.90,,2013-04-19 18:33:00,
2013-04-19 14:43:00,31.0,25.0,29.73,WSW,251,7.0,7.0,77,0.00,,,0.90,,2013-04-19 18:43:00,
2013-04-19 14:52:00,32.0,26.0,29.74,West,270,4.0,7.0,77,0.00,,,0.90,,2013-04-19 18:52:00,
2013-04-19 15:02:00,32.0,26.0,29.75,WNW,291,5.0,5.0,77,0.00,,,0.90,,2013-04-19 19:02:00,
2013-04-19 15:11:00,32.0,26.0,29.76,WSW,247,0.0,5.0,78,0.00,,,0.90,,2013-04-19 19:11:00,
2013-04-19 15:21:00,32.0,26.0,29.76,WSW,247,0.0,5.0,78,0.00,,,0.90,,2013-04-19 19:21:00,
2013-04-19 15:32:00,32.0,26.0,29.77,WNW,284,2.0,7.0,78,0.00,,,0.90,,2013-04-19 19:32:00,
2013-04-19 15:42:00,32.0,26.0,29.77,WNW,284,2.0,7.0,78,0.00,,,0.90,,2013-04-19 19:42:00,
2013-04-19 15:52:00,33.0,27.0,29.77,West,270,2.0,6.0,78,0.00,,,0.90,,2013-04-19 19:52:00,
2013-04-19 16:02:00,33.0,27.0,29.77,West,270,2.0,2.0,78,0.00,,,0.90,,2013-04-19 20:02:00,
2013-04-19 16:11:00,34.0,28.0,29.78,West,270,7.0,7.0,78,0.00,,,0.90,,2013-04-19 20:11:00,
2013-04-19 16:22:00,34.0,28.0,29.78,West,270,7.0,7.0,78,0.00,,,0.90,,2013-04-19 20:22:00,
2013-04-19 16:32:00,35.0,29.0,29.78,West,270,7.0,7.0,78,0.00,,,0.90,,2013-04-19 20:32:00,
2013-04-19 16:42:00,35.0,29.0,29.78,WNW,292,0.0,4.0,79,0.00,,,0.90,,2013-04-19 20:42:00,
2013-04-19 16:52:00,35.0,29.0,29.78,WNW,292,0.0,4.0,79,0.00,,,0.90,,2013-04-19 20:52:00,
2013-04-19 17:01:00,36.0,30.0,29.78,SW,225,5.0,5.0,79,0.00,,,0.90,,2013-04-19 21:01:00,
2013-04-19 17:11:00,37.0,31.0,29.78,NW,318,3.0,7.0,80,0.00,,,0.90,,2013-04-19 21:11:00,
2013-04-19 17:21:00,37.0,31.0,29.78,NW,318,3.0,7.0,80,0.00,,,0.90,,2013-04-19 21:21:00,
2013-04-19 17:32:00,38.0,32.0,29.79,WSW,247,3.0,4.0,79,0.00,,,0.90,,2013-04-19 21:32:00,
2013-04-19 17:42:00,38.0,32.0,29.79,WSW,247,3.0,4.0,79,0.00,,,0.90,,2013-04-19 21:42:00,
2013-04-19 17:53:00,37.0,31.0,29.79,West,270,9.0,9.0,78,0.00,,,0.90,,2013-04-19 21:53:00,
2013-04-19 18:02:00,38.0,32.0,29.79,NW,314,3.0,3.0,79,0.00,,,0.90,,2013-04-19 22:02:00,
2013-04-19 18:12:00,38.0,32.0,29.81,SW,233,6.0,7.0,78,0.00,,,0.90,,2013-04-19 22:12:00,
2013-04-19 18:23:00,38.0,32.0,29.81,SW,233,6.0,7.0,78,0.00,,,0.90,,2013-04-19 22:23:00,
2013-04-19 18:33:00,38.0,32.0,29.81,West,270,6.0,7.0,78,0.00,,,0.90,,2013-04-19 22:33:00,
2013-04-19 18:42:00,38.0,32.0,29.83,West,261,3.0,9.0,79,0.00,,,0.90,,2013-04-19 22:42:00,
2013-04-19 18:52:00,38.0,32.0,29.83,West,261,3.0,9.0,79,0.00,,,0.90,,2013-04-19 22:52:00,
2013-04-19 19:03:00,38.0,32.0,29.83,WNW,294,6.0,8.0,79,0.00,,,0.90,,2013-04-19 23:03:00,
2013-04-19 19:11:00,37.0,32.0,29.84,NW,315,1.0,5.0,81,0.00,,,0.90,,2013-04-19 23:11:00,
2013-04-19 19:22:00,37.0,32.0,29.84,NW,315,1.0,5.0,81,0.00,,,0.90,,2013-04-19 23:22:00,
2013-04-19 19:32:00,36.0,31.0,29.84,SW,225,6.0,7.0,82,0.00,,,0.90,,2013-04-19 23:32:00,
2013-04-19 19:42:00,36.0,31.0,29.84,SW,225,6.0,7.0,82,0.00,,,0.90,,2013-04-19 23:42:00,
2013-04-19 19:52:00,36.0,31.0,29.85,West,270,7.0,7.0,82,0.00,,,0.90,,2013-04-19 23:52:00,
2013-04-19 20:02:00,36.0,31.0,29.86,WSW,247,9.0,9.0,82,0.00,,,0.85,,2013-04-20 00:02:00,
2013-04-19 20:12:00,37.0,32.0,29.86,WNW,292,0.0,5.0,81,0.00,,,0.81,,2013-04-20 00:12:00,
2013-04-19 20:22:00,37.0,32.0,29.86,WNW,292,0.0,5.0,81,0.00,,,0.81,,2013-04-20 00:22:00,
2013-04-19 20:32:00,36.0,31.0,29.87,NW,315,7.0,12.0,81,0.00,,,0.79,,2013-04-20 00:32:00,
2013-04-19 20:42:00,36.0,31.0,29.87,NW,315,7.0,12.0,81,0.00,,,0.79,,2013-04-20 00:42:00,
2013-04-19 20:52:00,36.0,31.0,29.88,NW,315,7.0,10.0,81,0.00,,,0.73,,2013-04-20 00:52:00,
2013-04-19 21:01:00,35.0,30.0,29.88,WNW,292,5.0,10.0,81,0.00,,,0.71,,2013-04-20 01:01:00,
2013-04-19 21:11:00,35.0,30.0,29.88,WNW,292,5.0,10.0,81,0.00,,,0.71,,2013-04-20 01:11:00,
2013-04-19 21:21:00,35.0,30.0,29.89,WNW,292,5.0,6.0,83,0.00,,,0.69,,2013-04-20 01:21:00,
2013-04-19 21:32:00,35.0,30.0,29.89,NW,315,7.0,7.0,83,0.00,,,0.69,,2013-04-20 01:32:00,
2013-04-19 21:42:00,35.0,30.0,29.89,NW,315,7.0,7.0,83,0.00,,,0.69,,2013-04-20 01:42:00,
2013-04-19 21:52:00,35.0,30.0,29.90,WSW,250,6.0,7.0,83,0.00,,,0.65,,2013-04-20 01:52:00,
2013-04-19 22:01:00,35.0,30.0,29.90,WNW,292,7.0,7.0,83,0.00,,,0.65,,2013-04-20 02:01:00,
2013-04-19 22:11:00,36.0,31.0,29.91,WNW,292,8.0,8.0,83,0.00,,,0.65,,2013-04-20 02:11:00,
2013-04-19 22:21:00,36.0,31.0,29.91,WNW,292,8.0,8.0,83,0.00,,,0.65,,2013-04-20 02:21:00,
2013-04-19 22:32:00,36.0,31.0,29.91,West,270,0.0,8.0,83,0.00,,,0.65,,2013-04-20 02:32:00,
2013-04-19 22:42:00,36.0,31.0,29.91,West,270,0.0,8.0,83,0.00,,,0.65,,2013-04-20 02:42:00,
2013-04-19 22:52:00,36.0,31.0,29.91,WNW,292,2.0,2.0,83,0.00,,,0.65,,2013-04-20 02:52:00,
2013-04-19 23:01:00,36.0,32.0,29.92,West,270,2.0,6.0,84,0.00,,,0.65,,2013-04-20 03:01:00,
2013-04-19 23:11:00,36.0,31.0,29.92,West,270,5.0,7.0,83,0.00,,,0.65,,2013-04-20 03:11:00,
2013-04-19 23:21:00,36.0,31.0,29.92,West,270,5.0,7.0,83,0.00,,,0.65,,2013-04-20 03:21:00,
2013-04-19 23:33:00,36.0,31.0,29.92,WNW,283,2.0,5.0,83,0.00,,,0.65,,2013-04-20 03:33:00,
2013-04-19 23:43:00,36.0,31.0,29.93,WNW,298,8.0,9.0,83,0.00,,,0.65,,2013-04-20 03:43:00,
2013-04-19 23:53:00,36.0,31.0,29.93,WNW,298,8.0,9.0,83,0.00,,,0.65,,2013-04-20 03:53:00,